Time;durP1;ratioP1;P1;durP2;ratioP2;P2;SDS_P1;SDS_P2;PMS_P1;PMS_P2;Temp;Humidity;BMP_temperature;BMP_pressure;BME280_temperature;BME280_humidity;BME280_pressure;Samples;Min_cycle;Max_cycle;Signal;HPM_P1;HPM_P2
2022/03/24 00:02:39;;;;;;;;;13.25;10.50;;;;;4.86;54.21;101904.16;146611;581;46016;-70
2022/03/24 00:05:31;;;;;;;;;14.25;14.25;;;;;4.80;55.61;101895.88;146614;591;46020;-71
2022/03/24 00:08:25;;;;;;;;;12.25;10.50;;;;;4.77;55.25;101900.72;146612;579;46016;-71
2022/03/24 00:11:17;;;;;;;;;11.50;10.50;;;;;4.68;56.67;101897.31;146610;615;46008;-71
2022/03/24 00:14:09;;;;;;;;;13.50;12.00;;;;;4.58;56.48;101908.37;146611;603;46016;-71
2022/03/24 00:17:01;;;;;;;;;14.00;13.00;;;;;4.50;56.47;101897.38;146613;570;46008;-72
2022/03/24 00:19:53;;;;;;;;;14.00;12.00;;;;;4.43;57.10;101899.22;146606;583;47010;-71
2022/03/24 00:22:46;;;;;;;;;12.00;10.00;;;;;4.33;58.08;101900.00;146615;579;46008;-71
2022/03/24 00:25:38;;;;;;;;;12.75;12.00;;;;;4.28;57.92;101896.12;146614;625;46012;-71
2022/03/24 00:28:33;;;;;;;;;12.50;10.25;;;;;4.24;57.43;101891.47;146606;757;47008;-71
2022/03/24 00:31:25;;;;;;;;;11.25;10.00;;;;;4.21;56.75;101891.16;146609;605;46016;-71
2022/03/24 00:34:18;;;;;;;;;13.50;11.75;;;;;4.18;56.21;101886.63;146612;599;46008;-71
2022/03/24 00:37:11;;;;;;;;;13.75;12.25;;;;;4.13;57.03;101881.03;146612;567;46016;-70
2022/03/24 00:40:06;;;;;;;;;14.75;14.75;;;;;4.08;57.56;101877.16;146607;563;46020;-70
2022/03/24 00:42:59;;;;;;;;;17.50;14.00;;;;;4.01;57.88;101879.88;146610;624;46010;-70
2022/03/24 00:45:53;;;;;;;;;18.00;16.50;;;;;3.99;58.06;101883.03;146613;625;46008;-73
2022/03/24 00:48:45;;;;;;;;;16.50;14.75;;;;;3.94;59.19;101878.38;146612;629;46012;-73
2022/03/24 00:51:38;;;;;;;;;12.75;12.75;;;;;3.94;57.51;101875.81;146612;606;47008;-75
2022/03/24 00:54:30;;;;;;;;;16.00;15.00;;;;;3.97;58.30;101872.66;146612;569;46010;-75
2022/03/24 00:57:22;;;;;;;;;15.00;13.50;;;;;3.99;57.54;101873.72;146614;558;46021;-75
2022/03/24 01:00:17;;;;;;;;;18.50;16.00;;;;;4.00;57.79;101877.19;146611;640;46021;-76
2022/03/24 01:03:10;;;;;;;;;20.25;18.50;;;;;3.97;57.79;101875.22;146614;727;46008;-74
2022/03/24 01:06:03;;;;;;;;;20.50;15.00;;;;;3.96;59.01;101877.63;146609;570;46027;-73
2022/03/24 01:08:55;;;;;;;;;18.25;16.75;;;;;3.98;58.46;101869.31;146607;563;46020;-73
2022/03/24 01:11:47;;;;;;;;;19.50;16.50;;;;;4.01;58.25;101872.19;146611;611;46010;-75
2022/03/24 01:14:39;;;;;;;;;28.50;25.25;;;;;4.00;58.63;101866.91;146616;579;46020;-74
2022/03/24 01:17:32;;;;;;;;;22.75;18.25;;;;;4.00;57.77;101869.47;146610;627;46016;-76
2022/03/24 01:20:24;;;;;;;;;18.75;16.50;;;;;3.98;58.68;101864.19;146614;594;46021;-71
2022/03/24 01:23:17;;;;;;;;;20.25;16.00;;;;;3.98;58.41;101869.31;146607;593;46012;-70
2022/03/24 01:26:11;;;;;;;;;17.25;15.50;;;;;3.99;58.13;101867.66;146610;701;46021;-74
2022/03/24 01:29:03;;;;;;;;;16.50;14.50;;;;;3.97;57.84;101862.38;146613;563;46016;-74
2022/03/24 01:31:55;;;;;;;;;15.25;13.50;;;;;3.98;57.65;101860.72;146612;585;46020;-74
2022/03/24 01:34:48;;;;;;;;;32.75;29.00;;;;;3.98;57.51;101864.19;146612;584;46030;-74
2022/03/24 01:37:40;;;;;;;;;69.50;54.25;;;;;3.96;57.51;101858.03;146609;618;46008;-74
2022/03/24 01:40:32;;;;;;;;;82.33;64.67;;;;;3.97;57.29;101856.34;146613;578;46010;-74
2022/03/24 01:43:25;;;;;;;;;56.75;43.75;;;;;4.00;57.54;101852.41;146618;593;46020;-73
2022/03/24 01:46:17;;;;;;;;;31.50;25.25;;;;;4.03;57.56;101855.28;146610;628;46016;-74
2022/03/24 01:49:08;;;;;;;;;17.50;15.00;;;;;4.03;58.31;101847.56;146617;572;46021;-74
2022/03/24 01:52:01;;;;;;;;;17.00;12.00;;;;;4.01;59.08;101850.75;146608;572;46016;-74
2022/03/24 01:54:57;;;;;;;;;18.00;14.50;;;;;2.87;57.51;101654.37;146614;639;46008;-69
2022/03/24 01:57:49;;;;;;;;;13.25;12.50;;;;;3.99;57.79;101850.63;146608;634;47010;-70
2022/03/24 02:00:44;;;;;;;;;12.75;11.50;;;;;4.02;57.36;101852.53;146616;617;45020;-70
2022/03/24 02:03:36;;;;;;;;;46.75;39.25;;;;;4.07;57.19;101853.91;146609;592;46011;-70
2022/03/24 02:06:29;;;;;;;;;42.25;37.50;;;;;4.09;57.19;101853.28;146629;697;45020;-70
2022/03/24 02:09:21;;;;;;;;;28.75;27.00;;;;;4.11;56.54;101851.78;146633;578;45012;-70
2022/03/24 02:12:15;;;;;;;;;29.50;24.25;;;;;4.14;56.89;101849.50;146633;702;46008;-69
2022/03/24 02:15:08;;;;;;;;;30.00;25.25;;;;;4.16;57.51;101852.19;146633;622;46016;-69
2022/03/24 02:18:00;;;;;;;;;26.25;22.50;;;;;4.18;56.67;101848.13;146637;582;45008;-69
2022/03/24 02:20:52;;;;;;;;;24.25;23.00;;;;;4.17;56.22;101848.88;146634;701;45914;-70
2022/03/24 02:23:44;;;;;;;;;19.00;16.00;;;;;4.16;57.55;101853.09;146637;618;44049;-68
2022/03/24 02:26:37;;;;;;;;;20.75;19.75;;;;;4.16;56.70;101857.34;146628;789;45914;-70
2022/03/24 02:29:28;;;;;;;;;28.50;24.00;;;;;4.20;57.02;101858.53;146636;602;45020;-72
2022/03/24 02:32:23;;;;;;;;;29.75;21.25;;;;;4.22;56.18;101854.44;146634;564;45017;-72
2022/03/24 02:35:15;;;;;;;;;19.75;17.25;;;;;4.31;56.84;101857.88;146627;589;45020;-70
2022/03/24 02:38:07;;;;;;;;;17.25;15.00;;;;;4.45;56.79;101857.50;146631;625;45913;-72
2022/03/24 02:40:59;;;;;;;;;26.00;17.25;;;;;4.61;56.94;101852.12;146635;635;45021;-73
2022/03/24 02:43:51;;;;;;;;;20.00;16.50;;;;;4.83;57.91;101857.63;146631;601;46010;-73
2022/03/24 02:46:43;;;;;;;;;13.75;13.25;;;;;5.02;56.90;101840.53;146637;670;45008;-74
2022/03/24 02:49:36;;;;;;;;;14.50;12.00;;;;;5.25;56.38;101852.00;146633;574;45016;-72
2022/03/24 02:52:28;;;;;;;;;13.00;11.00;;;;;5.43;54.94;101839.91;146636;587;45020;-72
2022/03/24 02:55:20;;;;;;;;;13.00;10.50;;;;;5.62;54.67;101852.72;146630;586;45016;-68
2022/03/24 02:58:12;;;;;;;;;13.25;10.75;;;;;5.78;52.93;101849.06;146635;575;44020;-70
2022/03/24 03:01:04;;;;;;;;;12.50;12.00;;;;;5.93;52.50;101846.97;146635;569;45016;-70
2022/03/24 03:03:56;;;;;;;;;11.25;9.75;;;;;6.08;52.94;101844.84;146627;609;45021;-70
2022/03/24 03:06:48;;;;;;;;;11.00;10.25;;;;;6.21;52.28;101846.81;146614;654;46016;-70
2022/03/24 03:09:42;;;;;;;;;8.50;7.75;;;;;6.32;52.17;101846.03;146612;566;46021;-70
2022/03/24 03:12:34;;;;;;;;;9.00;7.00;;;;;6.41;51.86;101845.94;146613;666;46016;-68
2022/03/24 03:15:26;;;;;;;;;13.00;12.00;;;;;6.47;51.02;101841.28;146618;621;46020;-69
2022/03/24 03:18:19;;;;;;;;;10.25;8.00;;;;;6.52;51.83;101845.19;146610;586;46010;-69
2022/03/24 03:21:11;;;;;;;;;11.00;9.25;;;;;6.57;50.93;101841.28;146621;583;46020;-69
2022/03/24 03:24:04;;;;;;;;;10.75;9.25;;;;;6.61;51.09;101838.22;146616;583;46016;-71
2022/03/24 03:26:57;;;;;;;;;11.75;8.75;;;;;6.64;50.86;101838.50;146623;676;46008;-72
2022/03/24 03:29:49;;;;;;;;;9.75;8.50;;;;;6.66;51.48;101841.19;146614;616;47010;-72
2022/03/24 03:32:42;;;;;;;;;9.25;7.75;;;;;6.65;51.27;101835.12;146608;581;46021;-71
2022/03/24 03:35:34;;;;;;;;;11.25;7.75;;;;;6.68;51.62;101837.06;146616;613;46016;-71
2022/03/24 03:38:26;;;;;;;;;10.00;7.50;;;;;6.68;50.65;101843.13;146620;581;46020;-72
2022/03/24 03:41:23;;;;;;;;;7.75;7.25;;;;;6.74;50.33;101836.69;146616;762;46017;-72
2022/03/24 03:44:15;;;;;;;;;5.50;5.50;;;;;6.77;50.28;101848.16;146620;709;46020;-72
2022/03/24 03:47:08;;;;;;;;;6.75;6.75;;;;;6.81;50.13;101841.56;146616;577;46016;-72
2022/03/24 03:50:01;;;;;;;;;9.25;8.25;;;;;6.80;51.15;101834.63;146620;648;46008;-71
2022/03/24 03:52:53;;;;;;;;;7.25;6.25;;;;;6.82;50.78;101843.37;146616;664;46012;-70
2022/03/24 03:55:45;;;;;;;;;6.25;5.75;;;;;6.81;50.65;101836.41;146621;602;46008;-71
2022/03/24 03:58:37;;;;;;;;;5.00;5.00;;;;;6.81;50.35;101839.00;146615;566;46016;-68
2022/03/24 04:01:30;;;;;;;;;6.75;6.75;;;;;6.81;49.95;101842.47;146611;614;46021;-70
2022/03/24 04:04:22;;;;;;;;;10.25;9.25;;;;;6.83;49.69;101843.53;146614;573;47010;-71
2022/03/24 04:07:14;;;;;;;;;8.00;7.00;;;;;6.82;50.19;101838.22;146623;592;46008;-70
2022/03/24 04:10:06;;;;;;;;;8.75;7.25;;;;;6.82;50.38;101838.22;146617;564;47010;-70
2022/03/24 04:12:59;;;;;;;;;9.75;7.25;;;;;6.83;49.95;101846.09;146620;663;46020;-70
2022/03/24 04:15:54;;;;;;;;;7.75;7.75;;;;;6.48;50.48;101779.59;146619;601;46010;-70
2022/03/24 04:18:49;;;;;;;;;8.75;7.75;;;;;6.85;49.82;101848.78;146619;634;46012;-70
2022/03/24 04:21:41;;;;;;;;;14.25;10.50;;;;;6.83;49.67;101843.53;146613;611;46027;-71
2022/03/24 04:24:34;;;;;;;;;12.50;12.00;;;;;6.86;49.11;101845.47;146611;602;46021;-72
2022/03/24 04:27:26;;;;;;;;;7.00;7.00;;;;;6.91;49.34;101846.72;146610;766;46016;-72
2022/03/24 04:30:18;;;;;;;;;14.25;10.75;;;;;6.95;48.79;101846.22;146613;628;47008;-72
2022/03/24 04:33:10;;;;;;;;;10.75;10.25;;;;;6.98;49.37;101858.44;146607;569;46017;-72
2022/03/24 04:36:05;;;;;;;;;10.75;10.00;;;;;6.97;49.54;101859.22;146614;603;46020;-72
2022/03/24 04:38:58;;;;;;;;;11.75;8.75;;;;;6.94;49.60;101863.34;146609;593;46017;-71
2022/03/24 04:41:51;;;;;;;;;10.25;8.50;;;;;6.92;49.85;101864.03;146623;612;46008;-72
2022/03/24 04:44:43;;;;;;;;;9.00;6.50;;;;;5.98;48.81;101690.31;146617;624;46010;-74
2022/03/24 04:47:35;;;;;;;;;9.75;7.00;;;;;6.93;49.25;101858.09;146621;566;46021;-73
2022/03/24 04:50:27;;;;;;;;;8.00;7.00;;;;;6.97;48.56;101867.87;146615;602;46016;-73
2022/03/24 04:53:19;;;;;;;;;17.50;9.25;;;;;7.03;48.28;101867.47;146618;661;47009;-73
2022/03/24 04:56:11;;;;;;;;;7.75;7.00;;;;;7.05;48.56;101864.25;146616;569;47010;-73
2022/03/24 04:59:04;;;;;;;;;13.50;9.75;;;;;7.10;48.87;101870.72;146613;626;46020;-72
2022/03/24 05:01:56;;;;;;;;;8.00;7.50;;;;;7.18;47.94;101868.75;146620;569;46029;-74
2022/03/24 05:04:49;;;;;;;;;8.25;6.75;;;;;7.33;47.36;101871.72;146621;623;46020;-72
2022/03/24 05:07:42;;;;;;;;;7.00;6.00;;;;;7.85;47.20;101870.81;146610;599;46016;-74
2022/03/24 05:10:34;;;;;;;;;8.75;7.50;;;;;8.50;46.70;101869.97;146622;631;46020;-73
2022/03/24 05:13:26;;;;;;;;;9.00;7.50;;;;;9.13;45.11;101863.53;146612;565;47010;-71
2022/03/24 05:16:19;;;;;;;;;8.50;8.00;;;;;9.75;43.25;101869.84;146623;618;46021;-70
2022/03/24 05:19:12;;;;;;;;;8.00;8.00;;;;;10.21;42.03;101860.16;146614;632;46016;-71
2022/03/24 05:22:04;;;;;;;;;9.00;9.00;;;;;10.55;41.16;101859.97;146621;666;46008;-70
2022/03/24 05:24:56;;;;;;;;;10.25;9.00;;;;;10.72;40.63;101859.47;146615;593;46017;-70
2022/03/24 05:27:48;;;;;;;;;13.50;10.00;;;;;10.83;39.56;101860.19;146606;609;46020;-71
2022/03/24 05:30:41;;;;;;;;;9.25;7.50;;;;;10.85;39.57;101858.59;146613;569;46032;-69
2022/03/24 05:33:33;;;;;;;;;12.00;7.25;;;;;10.79;39.96;101865.97;146619;569;46020;-69
2022/03/24 05:36:26;;;;;;;;;8.25;7.00;;;;;10.66;39.57;101871.13;146617;581;46016;-71
2022/03/24 05:39:18;;;;;;;;;8.75;8.25;;;;;10.53;39.39;101879.72;146622;598;46012;-71
2022/03/24 05:42:10;;;;;;;;;11.75;8.50;;;;;10.39;39.53;101879.66;146618;594;47010;-69
2022/03/24 05:45:02;;;;;;;;;9.00;6.75;;;;;10.29;40.00;101878.91;146618;593;47008;-69
2022/03/24 05:47:55;;;;;;;;;12.75;11.25;;;;;10.23;39.78;101875.84;146617;571;46010;-71
2022/03/24 05:50:47;;;;;;;;;12.75;9.00;;;;;10.17;39.87;101869.44;146611;593;47008;-71
2022/03/24 05:53:39;;;;;;;;;12.75;10.50;;;;;10.15;40.64;101873.59;146615;602;47012;-71
2022/03/24 05:56:32;;;;;;;;;7.25;7.00;;;;;10.19;40.35;101874.75;146609;652;46008;-71
2022/03/24 05:59:24;;;;;;;;;12.50;12.00;;;;;10.25;41.08;101869.06;146618;575;46017;-71
2022/03/24 06:02:17;;;;;;;;;11.75;11.00;;;;;10.34;40.27;101875.84;146607;579;46021;-72
2022/03/24 06:05:12;;;;;;;;;11.00;9.00;;;;;10.41;40.64;101874.59;146612;680;46010;-70
2022/03/24 06:08:04;;;;;;;;;11.00;10.25;;;;;10.56;39.85;101879.94;146622;603;46009;-71
2022/03/24 06:10:57;;;;;;;;;9.00;7.50;;;;;10.71;39.86;101870.63;146612;599;46016;-70
2022/03/24 06:13:49;;;;;;;;;15.25;12.00;;;;;10.83;39.09;101873.16;146619;590;46020;-70
2022/03/24 06:16:41;;;;;;;;;8.25;8.00;;;;;10.91;39.18;101869.41;146607;586;46017;-70
2022/03/24 06:19:35;;;;;;;;;10.25;8.25;;;;;11.00;39.07;101872.62;146621;585;46020;-68
2022/03/24 06:22:27;;;;;;;;;12.25;9.50;;;;;11.03;38.12;101867.66;146613;564;46017;-70
2022/03/24 06:25:18;;;;;;;;;8.50;8.00;;;;;11.12;38.98;101864.78;146607;691;46008;-72
2022/03/24 06:28:11;;;;;;;;;10.00;9.50;;;;;11.23;38.68;101878.47;146618;582;46012;-70
2022/03/24 06:31:03;;;;;;;;;10.00;9.00;;;;;11.26;38.43;101876.06;146624;596;46020;-70
2022/03/24 06:33:56;;;;;;;;;8.50;8.50;;;;;11.34;38.54;101874.88;146617;683;46010;-72
2022/03/24 06:36:47;;;;;;;;;9.25;8.00;;;;;11.44;38.77;101872.09;146619;595;47008;-70
2022/03/24 06:39:40;;;;;;;;;10.50;9.00;;;;;11.56;39.12;101870.31;146617;622;46016;-70
2022/03/24 06:42:32;;;;;;;;;15.25;13.00;;;;;11.71;39.13;101873.00;146617;624;46020;-72
2022/03/24 06:45:24;;;;;;;;;11.00;10.25;;;;;11.83;38.71;101869.38;146608;607;46915;-72
2022/03/24 06:48:17;;;;;;;;;8.00;8.00;;;;;11.94;37.68;101865.81;146612;672;46008;-71
2022/03/24 06:51:09;;;;;;;;;12.25;10.25;;;;;12.03;37.75;101866.41;146618;585;46017;-72
2022/03/24 06:54:02;;;;;;;;;13.00;11.75;;;;;12.18;38.36;101856.97;146608;632;46020;-72
2022/03/24 06:56:54;;;;;;;;;11.75;10.00;;;;;12.33;37.53;101863.91;146613;609;46030;-69
2022/03/24 06:59:46;;;;;;;;;7.75;7.50;;;;;12.44;35.80;101861.19;146616;593;46009;-69
2022/03/24 07:02:38;;;;;;;;;6.00;5.50;;;;;12.58;36.90;101858.53;146615;603;46012;-70
2022/03/24 07:05:31;;;;;;;;;7.25;7.25;;;;;12.69;35.35;101858.38;146622;569;46008;-68
2022/03/24 07:08:23;;;;;;;;;10.25;7.75;;;;;12.85;35.67;101859.31;146617;641;46010;-71
2022/03/24 07:11:15;;;;;;;;;8.00;7.75;;;;;12.95;36.18;101857.34;146624;578;47008;-72
2022/03/24 07:14:07;;;;;;;;;9.75;8.00;;;;;13.13;35.27;101862.75;146616;601;46016;-72
2022/03/24 07:16:59;;;;;;;;;9.00;7.75;;;;;13.29;35.85;101869.78;146620;617;46008;-72
2022/03/24 07:19:51;;;;;;;;;8.25;7.00;;;;;13.37;34.07;101859.81;146618;621;46016;-67
2022/03/24 07:22:43;;;;;;;;;8.25;7.75;;;;;13.44;35.11;101864.56;146613;622;46021;-68
2022/03/24 07:25:36;;;;;;;;;7.00;5.50;;;;;13.53;34.06;101859.88;146616;654;46016;-72
2022/03/24 07:28:28;;;;;;;;;11.00;10.00;;;;;13.62;34.49;101851.69;146622;635;46008;-73
2022/03/24 07:31:23;;;;;;;;;7.75;7.75;;;;;13.65;32.85;101854.47;146609;575;47012;-73
2022/03/24 07:34:16;;;;;;;;;9.50;8.75;;;;;13.69;33.24;101856.44;146625;676;45020;-74
2022/03/24 07:37:09;;;;;;;;;7.75;7.00;;;;;13.75;33.82;101853.28;146619;651;47010;-74
2022/03/24 07:40:01;;;;;;;;;10.50;8.75;;;;;13.89;34.12;101856.66;146620;577;47012;-73
2022/03/24 07:42:57;;;;;;;;;10.75;9.75;;;;;14.08;33.37;101851.63;146617;578;46915;-74
2022/03/24 07:45:49;;;;;;;;;17.50;11.75;;;;;14.24;33.66;101854.28;146621;581;46020;-74
2022/03/24 07:48:46;;;;;;;;;11.25;9.25;;;;;14.40;32.75;101857.72;146608;572;46010;-74
2022/03/24 07:51:39;;;;;;;;;7.00;7.00;;;;;14.50;32.45;101858.28;146608;578;46020;-75
2022/03/24 07:55:00;;;;;;;;;10.00;8.00;;;;;14.58;33.41;101848.31;146617;579;46010;-74
2022/03/24 07:57:52;;;;;;;;;9.00;8.25;;;;;14.66;31.86;101861.75;146622;593;46021;-73
2022/03/24 08:00:45;;;;;;;;;10.25;7.75;;;;;14.71;31.60;101842.91;146616;590;47010;-72
2022/03/24 08:03:37;;;;;;;;;11.50;9.25;;;;;14.76;32.12;101851.84;146620;732;46020;-72
2022/03/24 08:06:30;;;;;;;;;9.50;9.00;;;;;14.87;32.04;101851.53;146632;569;45914;-73
2022/03/24 08:09:22;;;;;;;;;10.00;9.50;;;;;15.02;33.10;101855.84;146635;564;45020;-71
2022/03/24 08:12:15;;;;;;;;;10.50;9.00;;;;;15.23;32.07;101855.09;146635;707;45010;-71
2022/03/24 08:15:07;;;;;;;;;12.75;10.00;;;;;15.38;31.48;101863.72;146638;580;45008;-71
2022/03/24 08:17:59;;;;;;;;;11.00;10.25;;;;;15.52;33.28;101853.97;146633;677;45017;-70
2022/03/24 08:20:52;;;;;;;;;11.00;9.50;;;;;15.68;32.21;101845.19;146629;572;45020;-71
2022/03/24 08:23:44;;;;;;;;;11.75;9.75;;;;;15.81;33.06;101855.41;146635;566;45012;-71
2022/03/24 08:26:36;;;;;;;;;12.75;10.75;;;;;15.97;31.30;101857.03;146635;570;45008;-74
2022/03/24 08:29:28;;;;;;;;;9.50;8.25;;;;;16.13;32.05;101856.00;146633;590;46010;-72
2022/03/24 08:32:20;;;;;;;;;12.25;10.00;;;;;16.26;32.79;101858.41;146633;663;45021;-72
2022/03/24 08:35:13;;;;;;;;;8.00;7.50;;;;;16.46;31.54;101850.56;146633;569;46010;-72
2022/03/24 08:38:05;;;;;;;;;9.00;8.00;;;;;16.64;31.11;101848.75;146636;577;45020;-72
2022/03/24 08:40:57;;;;;;;;;9.50;9.50;;;;;16.80;31.95;101852.97;146636;728;45010;-73
2022/03/24 08:43:49;;;;;;;;;20.50;19.00;;;;;16.98;31.28;101847.66;146637;563;45029;-72
2022/03/24 08:46:41;;;;;;;;;13.75;12.75;;;;;17.05;30.59;101845.34;146636;636;45016;-70
2022/03/24 08:49:33;;;;;;;;;11.25;11.25;;;;;17.11;30.45;101838.59;146629;602;45020;-69
2022/03/24 08:52:27;;;;;;;;;14.50;14.00;;;;;17.22;30.79;101840.81;146633;610;45914;-72
2022/03/24 08:55:19;;;;;;;;;18.75;15.75;;;;;16.58;31.99;101697.50;146639;563;44045;-72
2022/03/24 08:58:18;;;;;;;;;14.75;13.75;;;;;17.55;31.25;101833.44;146632;682;46016;-71
2022/03/24 09:01:10;;;;;;;;;12.75;12.25;;;;;17.75;29.81;101828.09;146634;596;45021;-71
2022/03/24 09:04:02;;;;;;;;;14.25;11.75;;;;;17.91;30.81;101843.66;146630;736;45016;-71
2022/03/24 09:06:54;;;;;;;;;11.00;10.00;;;;;18.03;30.79;101831.84;146612;576;46020;-72
2022/03/24 09:09:48;;;;;;;;;10.50;9.50;;;;;18.19;30.83;101831.56;146610;619;47010;-71
2022/03/24 09:12:44;;;;;;;;;14.00;11.00;;;;;18.36;30.51;101833.09;146619;671;47008;-72
2022/03/24 09:15:36;;;;;;;;;10.00;10.00;;;;;18.55;29.20;101823.28;146612;609;46017;-71
2022/03/24 09:18:28;;;;;;;;;13.50;12.00;;;;;18.64;28.87;101827.13;146606;656;46020;-71
2022/03/24 09:21:20;;;;;;;;;10.75;10.75;;;;;18.73;30.35;101821.34;146614;595;46010;-71
2022/03/24 09:24:12;;;;;;;;;12.75;10.75;;;;;18.81;28.99;101819.87;146614;630;46020;-72
2022/03/24 09:27:05;;;;;;;;;12.00;10.50;;;;;18.89;30.14;101813.16;146612;609;46016;-71
2022/03/24 09:29:57;;;;;;;;;8.75;8.25;;;;;19.01;29.00;101815.31;146616;645;46013;-72
2022/03/24 09:32:52;;;;;;;;;10.75;9.25;;;;;19.09;28.99;101807.69;146615;592;47010;-71
2022/03/24 09:35:44;;;;;;;;;11.25;10.25;;;;;19.20;29.48;101806.31;146620;693;46020;-72
2022/03/24 09:38:36;;;;;;;;;9.50;7.50;;;;;19.27;27.77;101803.03;146608;569;46016;-71
2022/03/24 09:41:31;;;;;;;;;9.00;8.50;;;;;19.38;29.73;101812.19;146620;690;46020;-71
2022/03/24 09:44:24;;;;;;;;;9.75;7.50;;;;;19.57;30.31;101804.88;146613;620;46016;-71
2022/03/24 09:47:19;;;;;;;;;10.25;10.00;;;;;19.78;29.65;101800.31;146613;619;46020;-72
2022/03/24 09:50:12;;;;;;;;;8.25;7.00;;;;;19.97;28.40;101799.13;146609;641;47012;-72
2022/03/24 09:53:06;;;;;;;;;14.00;13.25;;;;;20.07;29.45;101797.66;146623;573;46008;-72
2022/03/24 09:55:59;;;;;;;;;11.50;11.50;;;;;20.21;29.29;101798.94;146610;569;46016;-72
2022/03/24 09:58:54;;;;;;;;;18.50;15.25;;;;;19.56;29.76;101648.78;146613;569;47008;-72
2022/03/24 10:01:46;;;;;;;;;9.50;5.75;;;;;20.64;29.27;101787.00;146613;579;46016;-72
2022/03/24 10:04:50;;;;;;;;;10.50;8.00;;;;;20.82;30.44;101791.00;146616;577;47008;-72
2022/03/24 10:07:49;;;;;;;;;13.25;11.75;;;;;20.95;30.13;101779.91;146613;672;46017;-72
2022/03/24 10:10:47;;;;;;;;;13.50;11.25;;;;;21.09;28.62;101786.44;146610;614;46020;-72
2022/03/24 10:14:00;;;;;;;;;11.75;10.25;;;;;21.19;28.01;101777.88;146609;591;46021;-72
2022/03/24 10:16:52;;;;;;;;;17.25;14.00;;;;;21.20;27.88;101778.78;146608;602;47008;-72
2022/03/24 10:20:03;;;;;;;;;15.25;13.25;;;;;21.25;30.66;101773.63;146606;579;47012;-72
2022/03/24 10:23:08;;;;;;;;;9.75;9.75;;;;;21.36;30.33;101769.50;146614;618;46021;-72
2022/03/24 10:26:07;;;;;;;;;9.50;9.00;;;;;21.52;28.04;101763.72;146616;602;46016;-72
2022/03/24 10:29:02;;;;;;;;;10.75;10.00;;;;;21.64;28.68;101750.81;146620;604;46008;-72
2022/03/24 10:32:00;;;;;;;;;13.00;11.75;;;;;21.78;27.74;101752.88;146612;626;46010;-72
2022/03/24 10:34:52;;;;;;;;;8.75;7.50;;;;;21.78;25.21;101744.97;146609;608;46020;-72
2022/03/24 10:37:52;;;;;;;;;9.00;8.00;;;;;21.72;28.02;101744.84;146615;677;47010;-72
2022/03/24 10:40:45;;;;;;;;;9.25;6.25;;;;;21.76;26.36;101749.31;146622;601;47008;-72
2022/03/24 10:43:39;;;;;;;;;13.50;10.75;;;;;21.80;28.47;101756.44;146618;689;46010;-72
2022/03/24 10:46:37;;;;;;;;;6.50;5.00;;;;;21.94;26.55;101733.84;146609;638;46020;-74
2022/03/24 10:49:30;;;;;;;;;8.00;8.00;;;;;21.28;24.38;101611.03;146619;563;46023;-72
2022/03/24 10:52:25;;;;;;;;;13.75;11.75;;;;;21.97;26.78;101723.34;146619;623;46026;-71
2022/03/24 10:55:30;;;;;;;;;11.00;10.00;;;;;22.06;27.95;101726.19;146606;570;47010;-71
2022/03/24 10:58:44;;;;;;;;;9.75;8.50;;;;;22.25;28.46;101729.22;146613;569;46020;-72
2022/03/24 11:01:37;;;;;;;;;11.75;9.50;;;;;22.39;24.82;101716.25;146618;613;46016;-72
2022/03/24 11:04:29;;;;;;;;;10.50;8.25;;;;;22.40;25.02;101716.31;146620;606;46008;-72
2022/03/24 11:07:32;;;;;;;;;9.25;8.00;;;;;22.45;26.49;101711.97;146618;584;46017;-72
2022/03/24 11:10:26;;;;;;;;;11.25;10.00;;;;;22.34;24.05;101703.88;146621;613;46020;-72
2022/03/24 11:13:31;;;;;;;;;6.50;3.75;;;;;22.23;25.28;101708.03;146609;569;46016;-72
2022/03/24 11:16:26;;;;;;;;;8.25;7.50;;;;;22.14;26.15;101706.06;146613;580;46008;-72
2022/03/24 11:19:19;;;;;;;;;8.25;5.25;;;;;22.08;25.91;101702.44;146611;649;46016;-72
2022/03/24 11:22:15;;;;;;;;;11.00;11.00;;;;;22.16;28.26;101699.97;146618;573;46020;-72
2022/03/24 11:25:08;;;;;;;;;12.25;10.75;;;;;22.33;26.89;101687.97;146609;631;46010;-73
2022/03/24 11:28:00;;;;;;;;;9.50;7.75;;;;;22.50;26.36;101683.88;146614;608;46020;-72
2022/03/24 11:30:52;;;;;;;;;16.25;11.00;;;;;22.63;25.82;101686.75;146618;588;46010;-73
2022/03/24 11:33:54;;;;;;;;;14.25;11.25;;;;;22.65;26.28;101685.00;146615;668;46020;-72
2022/03/24 11:36:47;;;;;;;;;15.50;15.50;;;;;22.67;25.76;101675.34;146611;579;46010;-72
2022/03/24 11:39:39;;;;;;;;;9.75;8.75;;;;;22.68;23.37;101670.09;146611;670;47008;-72
2022/03/24 11:42:31;;;;;;;;;10.75;9.75;;;;;22.68;25.34;101669.19;146616;678;46016;-73
2022/03/24 11:45:33;;;;;;;;;8.50;8.50;;;;;22.74;25.14;101656.06;146607;694;46008;-74
2022/03/24 11:48:46;;;;;;;;;11.25;9.50;;;;;22.78;28.73;101655.28;146614;611;47012;-70
2022/03/24 11:51:38;;;;;;;;;7.75;6.50;;;;;22.82;24.21;101652.69;146619;612;46021;-71
2022/03/24 11:54:38;;;;;;;;;13.00;11.00;;;;;22.79;26.45;101647.34;146613;593;47010;-74
2022/03/24 11:57:37;;;;;;;;;13.75;11.75;;;;;22.71;26.61;101650.72;146613;604;46020;-73
2022/03/24 12:00:48;;;;;;;;;12.25;10.75;;;;;21.83;28.67;101501.28;146609;637;47012;-74
2022/03/24 12:03:49;;;;;;;;;31.25;28.25;;;;;22.77;27.07;101641.16;146614;577;46020;-73
2022/03/24 12:07:07;;;;;;;;;17.75;16.25;;;;;21.58;28.04;101409.34;146630;588;45010;-73
2022/03/24 12:10:02;;;;;;;;;20.25;16.75;;;;;22.99;26.76;101644.16;146637;671;44050;-74
2022/03/24 12:13:24;;;;;;;;;18.25;17.00;;;;;23.12;27.13;101630.25;146635;572;45008;-74
2022/03/24 12:16:23;;;;;;;;;10.50;9.00;;;;;23.14;25.69;101624.97;146631;577;45020;-73
2022/03/24 12:19:43;;;;;;;;;13.25;11.75;;;;;23.19;26.74;101625.94;146633;576;45016;-73
2022/03/24 12:22:36;;;;;;;;;15.75;12.75;;;;;23.20;26.04;101619.75;146637;576;45021;-73
2022/03/24 12:25:30;;;;;;;;;0.75;0.00;;;;;23.23;24.98;101625.09;146634;712;45030;-73
2022/03/24 12:28:32;;;;;;;;;9.75;9.75;;;;;23.29;26.63;101627.81;146636;577;45021;-73
2022/03/24 12:31:25;;;;;;;;;12.75;11.50;;;;;23.29;26.13;101617.25;146634;564;45010;-73
2022/03/24 12:34:18;;;;;;;;;12.75;11.50;;;;;23.34;25.28;101615.56;146631;591;44020;-73
2022/03/24 12:37:11;;;;;;;;;14.00;11.50;;;;;23.37;25.89;101607.66;146626;580;45914;-73
2022/03/24 12:40:21;;;;;;;;;12.25;12.25;;;;;23.39;28.23;101610.31;146627;581;45020;-74
2022/03/24 12:43:14;;;;;;;;;10.75;9.25;;;;;23.40;25.72;101597.13;146623;619;45914;-73
2022/03/24 12:46:45;;;;;;;;;12.00;11.50;;;;;23.10;28.25;101552.63;146625;579;46020;-74
2022/03/24 12:49:38;;;;;;;;;29.50;25.50;;;;;23.35;25.70;101597.91;146627;623;45912;-74
2022/03/24 12:53:08;;;;;;;;;11.50;10.75;;;;;22.36;27.59;101435.25;146628;606;45012;-73
2022/03/24 12:56:23;;;;;;;;;22.50;20.50;;;;;21.63;27.84;101303.00;146627;642;45018;-73
2022/03/24 12:59:16;;;;;;;;;26.50;24.25;;;;;23.36;25.66;101595.28;146627;595;45020;-73
2022/03/24 13:02:08;;;;;;;;;19.25;17.00;;;;;23.37;26.11;101591.78;146626;594;45014;-74
2022/03/24 13:05:01;;;;;;;;;10.75;9.25;;;;;23.37;24.68;101583.84;146616;588;46020;-74
2022/03/24 13:07:54;;;;;;;;;15.50;12.00;;;;;23.32;24.32;101584.66;146604;610;46017;-74
2022/03/24 13:11:02;;;;;;;;;13.25;12.25;;;;;23.15;25.06;101587.09;146605;608;46008;-73
2022/03/24 13:13:55;;;;;;;;;14.50;13.00;;;;;23.02;24.59;101576.34;146603;627;47010;-74
2022/03/24 13:17:02;;;;;;;;;28.25;25.25;;;;;22.98;28.34;101574.50;146607;589;46008;-74
2022/03/24 13:19:56;;;;;;;;;24.50;20.00;;;;;23.03;26.66;101564.00;146602;582;46017;-73
2022/03/24 13:22:49;;;;;;;;;19.75;18.25;;;;;23.05;25.18;101559.59;146606;594;46020;-73
2022/03/24 13:25:44;;;;;;;;;12.25;11.75;;;;;23.03;26.47;101561.34;146607;569;46010;-74